Time;durP1;ratioP1;P1;durP2;ratioP2;P2;SDS_P1;SDS_P2;PMS_P1;PMS_P2;Temp;Humidity;BMP_temperature;BMP_pressure;BME280_temperature;BME280_humidity;BME280_pressure;Samples;Min_cycle;Max_cycle;Signal;HPM_P1;HPM_P2
2022/11/04 00:01:04;;;;;;;12.50;5.40;;;;;;;;;;5055822;28;20493;-79
2022/11/04 00:03:31;;;;;;;7.95;4.65;;;;;;;;;;5056508;28;20055;-79
2022/11/04 00:06:00;;;;;;;10.52;5.20;;;;;;;;;;5054055;28;20457;-78
2022/11/04 00:08:25;;;;;;;9.85;5.45;;;;;;;;;;5053900;28;20101;-77
2022/11/04 00:13:39;;;;;;;11.20;5.78;;;;;;;;;;5057876;28;20508;-80
2022/11/04 00:18:48;;;;;;;16.95;5.80;;;;;;;;;;5056700;28;20028;-78
2022/11/04 00:29:25;;;;;;;12.45;6.00;;;;;;;;;;5057246;28;20040;-77
2022/11/04 00:34:34;;;;;;;11.27;6.28;;;;;;;;;;5059693;28;20456;-78
2022/11/04 00:37:01;;;;;;;15.63;6.05;;;;;;;;;;5062316;28;20062;-78
2022/11/04 00:39:27;;;;;;;13.93;6.00;;;;;;;;;;5044170;28;20500;-79
2022/11/04 00:41:52;;;;;;;12.45;6.43;;;;;;;;;;5059383;28;20024;-79
2022/11/04 00:44:17;;;;;;;10.43;6.50;;;;;;;;;;5056594;28;20068;-77
2022/11/04 00:46:42;;;;;;;12.88;6.25;;;;;;;;;;5056952;28;20023;-78
2022/11/04 00:49:08;;;;;;;7.82;4.95;;;;;;;;;;5055972;28;20064;-77
2022/11/04 00:51:33;;;;;;;14.55;6.70;;;;;;;;;;5056055;28;20039;-77
2022/11/04 00:53:58;;;;;;;13.57;6.65;;;;;;;;;;5057768;28;20024;-77
2022/11/04 00:56:24;;;;;;;14.63;7.05;;;;;;;;;;5040439;28;20379;-78
2022/11/04 00:58:49;;;;;;;12.90;7.20;;;;;;;;;;5055722;28;20029;-77
2022/11/04 01:01:18;;;;;;;14.45;7.80;;;;;;;;;;5056926;28;20081;-78
2022/11/04 01:03:45;;;;;;;13.40;7.60;;;;;;;;;;5058589;28;20021;-79
2022/11/04 01:06:11;;;;;;;15.15;7.93;;;;;;;;;;5057875;28;20397;-78
2022/11/04 01:08:36;;;;;;;12.00;7.00;;;;;;;;;;5057114;28;20021;-78
2022/11/04 01:11:07;;;;;;;14.02;6.82;;;;;;;;;;5056559;28;20025;-78
2022/11/04 01:13:32;;;;;;;16.17;7.50;;;;;;;;;;5057998;28;20032;-77
2022/11/04 01:16:02;;;;;;;16.50;8.50;;;;;;;;;;5058188;28;20032;-78
2022/11/04 01:18:28;;;;;;;15.60;8.25;;;;;;;;;;5056480;28;20056;-77
2022/11/04 01:20:53;;;;;;;13.15;8.20;;;;;;;;;;5055884;28;20480;-77
2022/11/04 01:23:18;;;;;;;16.40;7.85;;;;;;;;;;5057464;28;20027;-78
2022/11/04 01:25:44;;;;;;;17.23;8.82;;;;;;;;;;5058196;28;20481;-78
2022/11/04 01:28:09;;;;;;;19.92;8.38;;;;;;;;;;5039284;28;20028;-77
2022/11/04 01:30:37;;;;;;;17.67;8.80;;;;;;;;;;5056331;28;20132;-78
2022/11/04 01:33:03;;;;;;;18.48;9.23;;;;;;;;;;5057127;28;20017;-79
2022/11/04 01:35:29;;;;;;;20.30;9.43;;;;;;;;;;5058846;28;20044;-78
2022/11/04 01:37:54;;;;;;;15.48;8.95;;;;;;;;;;5057741;28;20024;-79
2022/11/04 01:40:20;;;;;;;18.08;9.57;;;;;;;;;;5055992;28;20021;-78
2022/11/04 01:42:45;;;;;;;17.27;9.43;;;;;;;;;;5058251;28;20055;-77
2022/11/04 01:45:13;;;;;;;19.63;9.80;;;;;;;;;;5058450;28;20543;-78
2022/11/04 01:47:41;;;;;;;18.10;9.93;;;;;;;;;;5056352;28;20021;-78
2022/11/04 01:50:12;;;;;;;23.33;10.00;;;;;;;;;;5055088;28;20036;-79
2022/11/04 01:52:56;;;;;;;19.00;10.20;;;;;;;;;;5055256;28;20033;-78
2022/11/04 01:55:30;;;;;;;27.60;10.32;;;;;;;;;;5055328;28;20091;-77
2022/11/04 01:57:59;;;;;;;19.95;10.30;;;;;;;;;;5055166;28;20450;-77
2022/11/04 02:00:25;;;;;;;20.08;10.02;;;;;;;;;;5057315;28;20028;-79
2022/11/04 02:02:53;;;;;;;20.58;10.82;;;;;;;;;;5055378;28;20029;-77
2022/11/04 02:05:19;;;;;;;18.08;10.73;;;;;;;;;;5056160;28;20024;-78
2022/11/04 02:07:49;;;;;;;21.38;11.10;;;;;;;;;;5036742;28;20123;-78
2022/11/04 02:10:17;;;;;;;19.35;10.70;;;;;;;;;;5056961;28;20051;-78
2022/11/04 02:12:49;;;;;;;18.70;10.98;;;;;;;;;;5056931;28;20051;-78
2022/11/04 02:15:29;;;;;;;22.45;11.00;;;;;;;;;;5056338;28;20499;-78
2022/11/04 02:18:00;;;;;;;22.20;10.65;;;;;;;;;;5057742;28;20481;-78
2022/11/04 02:20:43;;;;;;;18.20;10.10;;;;;;;;;;5054359;28;20029;-79
2022/11/04 02:23:26;;;;;;;20.08;10.63;;;;;;;;;;5055789;28;20051;-77
2022/11/04 02:26:33;;;;;;;18.17;10.63;;;;;;;;;;5056502;28;20021;-77
2022/11/04 02:29:29;;;;;;;18.25;10.57;;;;;;;;;;4973466;28;20055;-77
2022/11/04 02:32:18;;;;;;;17.23;10.23;;;;;;;;;;4975020;28;20027;-79
2022/11/04 02:35:27;;;;;;;18.73;10.63;;;;;;;;;;5042704;28;20121;-78
2022/11/04 02:38:17;;;;;;;18.38;10.73;;;;;;;;;;5009851;28;20037;-78
2022/11/04 02:41:10;;;;;;;19.45;10.70;;;;;;;;;;5053892;28;20119;-78
2022/11/04 02:43:44;;;;;;;23.58;11.05;;;;;;;;;;5060647;28;20051;-78
2022/11/04 02:46:21;;;;;;;20.42;11.23;;;;;;;;;;5061637;28;20036;-79
2022/11/04 02:49:01;;;;;;;25.08;11.82;;;;;;;;;;5056289;28;20367;-78
2022/11/04 02:51:45;;;;;;;21.75;10.98;;;;;;;;;;5057108;28;20029;-78
2022/11/04 02:54:15;;;;;;;21.50;11.27;;;;;;;;;;5056540;28;20103;-78
2022/11/04 02:56:48;;;;;;;22.83;12.15;;;;;;;;;;5054394;28;20036;-77
2022/11/04 02:59:19;;;;;;;21.67;11.40;;;;;;;;;;5055481;28;20032;-77
2022/11/04 03:01:48;;;;;;;22.02;11.30;;;;;;;;;;5042114;28;20090;-79
2022/11/04 03:04:18;;;;;;;21.42;11.30;;;;;;;;;;5055207;28;20024;-77
2022/11/04 03:06:47;;;;;;;21.27;12.23;;;;;;;;;;5055963;28;20064;-78
2022/11/04 03:09:14;;;;;;;22.45;12.20;;;;;;;;;;5055223;28;20028;-77
2022/11/04 03:11:43;;;;;;;21.77;12.45;;;;;;;;;;5059896;28;20428;-78
2022/11/04 03:14:17;;;;;;;23.10;11.90;;;;;;;;;;5057587;28;20052;-79
2022/11/04 03:16:51;;;;;;;21.48;12.52;;;;;;;;;;5059036;28;20051;-78
2022/11/04 03:19:36;;;;;;;25.38;12.57;;;;;;;;;;5056819;28;20051;-78
2022/11/04 03:22:07;;;;;;;25.60;12.45;;;;;;;;;;5056154;28;20029;-78
2022/11/04 03:24:32;;;;;;;25.25;12.27;;;;;;;;;;5059456;28;20056;-78
2022/11/04 03:27:05;;;;;;;23.02;12.60;;;;;;;;;;5041038;28;20032;-78
2022/11/04 03:29:38;;;;;;;23.27;11.93;;;;;;;;;;5056021;28;20045;-79
2022/11/04 03:32:23;;;;;;;24.60;12.43;;;;;;;;;;5053994;28;20060;-77
2022/11/04 03:34:49;;;;;;;27.42;12.57;;;;;;;;;;5054518;28;20024;-77
2022/11/04 03:37:14;;;;;;;21.80;12.55;;;;;;;;;;5053762;28;20025;-79
2022/11/04 03:39:40;;;;;;;23.17;12.48;;;;;;;;;;5054381;28;20449;-78
2022/11/04 03:42:21;;;;;;;22.00;12.73;;;;;;;;;;5055458;28;20021;-78
2022/11/04 03:44:51;;;;;;;25.33;12.73;;;;;;;;;;5055960;28;20089;-77
2022/11/04 03:47:19;;;;;;;22.02;12.25;;;;;;;;;;5037361;28;20486;-78
2022/11/04 03:49:47;;;;;;;22.60;11.80;;;;;;;;;;5053471;28;20096;-77
2022/11/04 03:52:13;;;;;;;23.75;12.88;;;;;;;;;;5053966;28;20066;-77
2022/11/04 03:54:39;;;;;;;25.48;12.65;;;;;;;;;;5059888;28;20064;-78
2022/11/04 03:57:28;;;;;;;25.30;13.35;;;;;;;;;;5060275;28;20032;-78
2022/11/04 04:00:14;;;;;;;22.20;12.82;;;;;;;;;;5041102;28;20021;-78
2022/11/04 04:03:17;;;;;;;21.70;12.73;;;;;;;;;;5058967;28;20032;-78
2022/11/04 04:06:02;;;;;;;27.38;14.10;;;;;;;;;;5057572;28;20081;-77
2022/11/04 04:08:34;;;;;;;22.17;12.75;;;;;;;;;;5059053;28;20470;-78
2022/11/04 04:11:13;;;;;;;22.08;13.05;;;;;;;;;;5041500;28;20033;-78
2022/11/04 04:13:56;;;;;;;22.92;12.90;;;;;;;;;;5058544;28;20110;-78
2022/11/04 04:16:29;;;;;;;27.35;13.10;;;;;;;;;;5059044;28;20029;-78
2022/11/04 04:19:06;;;;;;;25.30;12.48;;;;;;;;;;5059520;28;20020;-78
2022/11/04 04:21:40;;;;;;;24.65;13.43;;;;;;;;;;5057561;28;20028;-77
2022/11/04 04:29:39;;;;;;;24.30;13.13;;;;;;;;;;5057630;28;20024;-77
2022/11/04 04:32:05;;;;;;;22.08;13.25;;;;;;;;;;5058452;28;20029;-78
2022/11/04 04:34:32;;;;;;;29.05;15.23;;;;;;;;;;5058189;28;20144;-79
2022/11/04 04:37:04;;;;;;;24.20;14.23;;;;;;;;;;5057777;28;20125;-78
2022/11/04 04:45:09;;;;;;;26.98;14.25;;;;;;;;;;5060982;28;20039;-78
2022/11/04 04:47:42;;;;;;;27.70;13.73;;;;;;;;;;5057973;28;20033;-78
2022/11/04 04:50:09;;;;;;;28.90;14.87;;;;;;;;;;5058255;28;20116;-78
2022/11/04 04:52:41;;;;;;;28.48;14.35;;;;;;;;;;5061661;28;20242;-79
2022/11/04 04:55:08;;;;;;;29.08;14.57;;;;;;;;;;5043672;28;20551;-79
2022/11/04 04:57:33;;;;;;;25.08;14.95;;;;;;;;;;5060305;28;20016;-79
2022/11/04 04:59:58;;;;;;;27.92;14.98;;;;;;;;;;5060211;28;20474;-79
2022/11/04 05:02:24;;;;;;;28.90;16.20;;;;;;;;;;5062346;28;20050;-79
2022/11/04 05:04:49;;;;;;;31.30;17.55;;;;;;;;;;5061308;28;20029;-79
2022/11/04 05:07:14;;;;;;;36.28;19.27;;;;;;;;;;5061882;28;20085;-78
2022/11/04 05:09:40;;;;;;;35.75;19.63;;;;;;;;;;5061437;28;20040;-78
2022/11/04 05:12:05;;;;;;;35.63;19.92;;;;;;;;;;5055100;28;20052;-78
2022/11/04 05:14:30;;;;;;;36.00;20.58;;;;;;;;;;5039703;28;20473;-78
2022/11/04 05:16:56;;;;;;;38.40;21.33;;;;;;;;;;5057057;28;20037;-77
2022/11/04 05:19:21;;;;;;;46.45;21.77;;;;;;;;;;5058107;28;20044;-77
2022/11/04 05:21:46;;;;;;;37.55;21.65;;;;;;;;;;5057288;28;20025;-77
2022/11/04 05:24:12;;;;;;;36.72;20.98;;;;;;;;;;5055904;28;20033;-77
2022/11/04 05:26:37;;;;;;;46.42;23.35;;;;;;;;;;5055879;28;20025;-77
2022/11/04 05:29:02;;;;;;;48.88;22.90;;;;;;;;;;5055858;28;20017;-78
2022/11/04 05:31:29;;;;;;;41.28;22.70;;;;;;;;;;5056501;28;20163;-77
2022/11/04 05:33:54;;;;;;;42.75;22.90;;;;;;;;;;5040600;28;20021;-79
2022/11/04 05:36:19;;;;;;;39.72;22.27;;;;;;;;;;5058637;28;20541;-77
2022/11/04 05:38:49;;;;;;;41.55;22.35;;;;;;;;;;5055146;28;20112;-79
2022/11/04 05:41:24;;;;;;;40.33;23.33;;;;;;;;;;5037957;28;20032;-77
2022/11/04 05:43:50;;;;;;;49.08;23.58;;;;;;;;;;5057251;28;20389;-79
2022/11/04 05:46:16;;;;;;;44.72;24.88;;;;;;;;;;5055540;28;20017;-78
2022/11/04 05:48:41;;;;;;;43.88;24.70;;;;;;;;;;5054749;28;20021;-77
2022/11/04 05:51:06;;;;;;;46.88;24.75;;;;;;;;;;5055868;28;20071;-78
2022/11/04 05:53:31;;;;;;;46.92;25.48;;;;;;;;;;5058012;28;20021;-78
2022/11/04 05:55:57;;;;;;;51.63;26.08;;;;;;;;;;5058086;28;20024;-78
2022/11/04 05:58:22;;;;;;;52.35;26.23;;;;;;;;;;5056361;28;20032;-78
2022/11/04 06:00:47;;;;;;;45.50;24.42;;;;;;;;;;5055784;28;20527;-75
2022/11/04 06:03:12;;;;;;;48.92;25.88;;;;;;;;;;5037180;28;20037;-77
2022/11/04 06:05:38;;;;;;;57.78;27.25;;;;;;;;;;5054361;28;20035;-77
2022/11/04 06:08:03;;;;;;;54.33;28.60;;;;;;;;;;5054441;28;20028;-77
2022/11/04 06:10:28;;;;;;;48.20;27.05;;;;;;;;;;5054278;28;20120;-77
2022/11/04 06:12:53;;;;;;;50.72;25.13;;;;;;;;;;5055133;28;20017;-77
2022/11/04 06:15:19;;;;;;;48.00;26.55;;;;;;;;;;5055022;28;20131;-77
2022/11/04 06:17:44;;;;;;;48.22;25.20;;;;;;;;;;5055199;28;20428;-77
2022/11/04 06:20:09;;;;;;;50.55;26.33;;;;;;;;;;5054237;28;20013;-77
2022/11/04 06:22:35;;;;;;;48.72;25.85;;;;;;;;;;5054944;28;20028;-77
2022/11/04 06:25:00;;;;;;;46.10;25.95;;;;;;;;;;5054844;28;20493;-78
2022/11/04 06:27:25;;;;;;;49.47;25.00;;;;;;;;;;5054807;28;20027;-77
2022/11/04 06:29:52;;;;;;;54.13;26.33;;;;;;;;;;5053824;28;20037;-77
2022/11/04 06:32:18;;;;;;;52.67;25.67;;;;;;;;;;5054441;28;20167;-78
2022/11/04 06:34:43;;;;;;;47.15;25.13;;;;;;;;;;5055248;28;20490;-78
2022/11/04 06:37:08;;;;;;;43.95;24.23;;;;;;;;;;5053639;28;20053;-78
2022/11/04 06:39:34;;;;;;;52.28;25.65;;;;;;;;;;5054983;28;20478;-78
2022/11/04 06:41:59;;;;;;;46.90;26.23;;;;;;;;;;5054923;28;20028;-78
2022/11/04 06:44:24;;;;;;;47.42;26.35;;;;;;;;;;5055957;28;20036;-82
2022/11/04 06:46:50;;;;;;;45.85;25.83;;;;;;;;;;5065248;28;20024;-81
2022/11/04 06:49:19;;;;;;;48.08;26.45;;;;;;;;;;5061175;28;20474;-77
2022/11/04 06:51:45;;;;;;;44.22;25.70;;;;;;;;;;5054431;28;20035;-77
2022/11/04 06:54:11;;;;;;;70.88;32.47;;;;;;;;;;5054926;28;20108;-78
2022/11/04 06:56:36;;;;;;;44.95;26.15;;;;;;;;;;5053497;28;20134;-78
2022/11/04 06:59:02;;;;;;;46.22;24.73;;;;;;;;;;5054681;28;20024;-77
2022/11/04 07:01:31;;;;;;;45.42;24.02;;;;;;;;;;5054667;28;20035;-77
2022/11/04 07:03:58;;;;;;;43.22;23.42;;;;;;;;;;5055249;28;20025;-79
2022/11/04 07:06:24;;;;;;;43.33;24.05;;;;;;;;;;5056865;28;20063;-78
2022/11/04 07:08:51;;;;;;;42.03;23.75;;;;;;;;;;5054723;28;20517;-78
2022/11/04 07:11:19;;;;;;;39.35;20.67;;;;;;;;;;5054435;28;20051;-79
2022/11/04 07:13:45;;;;;;;41.22;20.55;;;;;;;;;;5054749;28;20025;-77
2022/11/04 07:16:11;;;;;;;34.85;19.80;;;;;;;;;;5052920;28;20401;-78
2022/11/04 07:18:36;;;;;;;33.58;18.73;;;;;;;;;;5053250;28;20029;-78
2022/11/04 07:21:02;;;;;;;39.60;19.13;;;;;;;;;;5054590;28;20492;-78
2022/11/04 07:23:27;;;;;;;34.47;18.58;;;;;;;;;;5055398;28;20107;-77
2022/11/04 07:25:53;;;;;;;32.35;18.92;;;;;;;;;;5054810;28;20098;-78
2022/11/04 07:28:19;;;;;;;34.67;19.20;;;;;;;;;;5053428;28;20168;-77
2022/11/04 07:30:44;;;;;;;30.20;16.35;;;;;;;;;;5054596;28;20129;-78
2022/11/04 07:33:09;;;;;;;30.98;17.13;;;;;;;;;;5055293;28;20032;-78
2022/11/04 07:35:35;;;;;;;34.20;16.88;;;;;;;;;;5053396;28;20432;-78
2022/11/04 07:38:02;;;;;;;27.83;15.82;;;;;;;;;;5055292;28;20033;-77
2022/11/04 07:40:27;;;;;;;25.02;15.23;;;;;;;;;;5037007;28;20017;-79
2022/11/04 07:42:53;;;;;;;22.33;14.25;;;;;;;;;;5054518;28;20047;-79
2022/11/04 07:45:18;;;;;;;23.23;12.85;;;;;;;;;;5055553;28;20123;-78
2022/11/04 07:47:43;;;;;;;25.75;14.35;;;;;;;;;;5056412;28;20109;-78
2022/11/04 07:50:08;;;;;;;26.25;14.13;;;;;;;;;;5054836;28;20375;-79
2022/11/04 07:52:34;;;;;;;24.05;13.32;;;;;;;;;;5054955;28;20108;-78
2022/11/04 07:55:00;;;;;;;24.25;13.00;;;;;;;;;;5053916;28;20032;-78
2022/11/04 07:57:25;;;;;;;21.98;12.90;;;;;;;;;;5054208;28;20490;-78
2022/11/04 07:59:50;;;;;;;23.98;14.00;;;;;;;;;;5037359;28;20037;-78
2022/11/04 08:02:15;;;;;;;23.20;13.85;;;;;;;;;;5055032;28;20021;-78
2022/11/04 08:04:41;;;;;;;29.02;13.25;;;;;;;;;;5054381;28;20041;-78
2022/11/04 08:07:08;;;;;;;22.40;12.95;;;;;;;;;;5036714;28;20083;-78
2022/11/04 08:09:35;;;;;;;22.90;12.55;;;;;;;;;;5054206;28;20470;-78
2022/11/04 08:12:00;;;;;;;19.77;12.30;;;;;;;;;;5054440;28;20454;-78
2022/11/04 08:14:26;;;;;;;24.75;12.65;;;;;;;;;;5054637;28;20051;-78
2022/11/04 08:16:51;;;;;;;21.70;13.10;;;;;;;;;;5054600;28;20087;-77
2022/11/04 08:19:16;;;;;;;19.67;12.50;;;;;;;;;;5053263;28;20017;-78
2022/11/04 08:21:41;;;;;;;20.25;12.57;;;;;;;;;;5053259;28;20029;-78
2022/11/04 08:24:07;;;;;;;23.95;12.98;;;;;;;;;;5053759;28;20027;-77
2022/11/04 08:26:32;;;;;;;14.80;8.23;;;;;;;;;;5053437;28;20021;-77
2022/11/04 08:28:58;;;;;;;22.50;12.32;;;;;;;;;;5053902;28;20033;-77
2022/11/04 08:31:26;;;;;;;24.27;13.27;;;;;;;;;;5053624;28;20060;-78
2022/11/04 08:33:52;;;;;;;23.67;13.73;;;;;;;;;;5054389;28;20441;-77
2022/11/04 08:36:21;;;;;;;23.15;12.38;;;;;;;;;;5052991;28;20029;-77
2022/11/04 08:38:46;;;;;;;14.45;8.70;;;;;;;;;;5053459;28;20513;-76
2022/11/04 08:41:14;;;;;;;14.75;7.95;;;;;;;;;;5056974;28;20025;-77
2022/11/04 08:43:39;;;;;;;30.17;10.63;;;;;;;;;;5039018;28;20059;-77
2022/11/04 08:46:07;;;;;;;19.98;10.00;;;;;;;;;;5056759;28;20021;-78
2022/11/04 08:48:36;;;;;;;15.45;9.27;;;;;;;;;;5056759;28;20037;-77
2022/11/04 08:51:04;;;;;;;18.98;9.45;;;;;;;;;;5056069;28;20032;-77
2022/11/04 08:53:29;;;;;;;17.30;8.10;;;;;;;;;;5054469;28;20081;-78
2022/11/04 08:55:54;;;;;;;14.82;8.65;;;;;;;;;;5055626;28;20017;-77
2022/11/04 08:58:22;;;;;;;16.45;8.00;;;;;;;;;;5055810;28;20032;-77
2022/11/04 09:00:48;;;;;;;16.80;8.43;;;;;;;;;;5056122;28;20028;-77
2022/11/04 09:03:13;;;;;;;13.90;7.18;;;;;;;;;;5056242;28;20027;-77
2022/11/04 09:05:43;;;;;;;14.18;7.47;;;;;;;;;;5038715;28;20104;-78
2022/11/04 09:08:10;;;;;;;11.77;7.07;;;;;;;;;;5056382;28;20490;-77
2022/11/04 09:10:39;;;;;;;10.82;7.25;;;;;;;;;;5057178;28;20033;-77
2022/11/04 09:13:06;;;;;;;15.70;8.32;;;;;;;;;;5055903;28;20552;-77
2022/11/04 09:15:31;;;;;;;12.20;7.40;;;;;;;;;;5056246;28;20104;-77
2022/11/04 09:17:57;;;;;;;14.18;7.45;;;;;;;;;;5056517;28;20115;-77
2022/11/04 09:20:22;;;;;;;11.05;6.25;;;;;;;;;;5056386;28;20017;-77
2022/11/04 09:22:49;;;;;;;14.20;6.38;;;;;;;;;;5056109;28;20074;-79
2022/11/04 09:25:15;;;;;;;8.93;5.22;;;;;;;;;;5037965;28;20486;-77
2022/11/04 09:27:40;;;;;;;8.10;4.70;;;;;;;;;;5056177;28;20063;-77
2022/11/04 09:30:06;;;;;;;8.25;4.60;;;;;;;;;;5055005;28;20029;-77
2022/11/04 09:32:31;;;;;;;7.00;4.43;;;;;;;;;;5054898;28;20109;-77
2022/11/04 09:34:56;;;;;;;8.75;4.75;;;;;;;;;;5055334;28;20027;-77
2022/11/04 09:37:21;;;;;;;8.80;4.57;;;;;;;;;;5036678;28;20020;-77
2022/11/04 09:39:47;;;;;;;6.60;4.25;;;;;;;;;;5037081;28;20052;-77
2022/11/04 09:42:32;;;;;;;10.88;5.05;;;;;;;;;;5054753;28;20021;-77
2022/11/04 09:45:04;;;;;;;7.18;4.50;;;;;;;;;;5055179;28;20039;-77
2022/11/04 09:47:32;;;;;;;10.15;4.85;;;;;;;;;;5054712;28;20072;-77
2022/11/04 09:50:00;;;;;;;9.35;4.88;;;;;;;;;;5036074;28;20486;-78
2022/11/04 09:52:40;;;;;;;7.88;4.60;;;;;;;;;;5054210;28;20025;-77
2022/11/04 09:55:19;;;;;;;8.20;4.57;;;;;;;;;;5055528;28;20029;-77
2022/11/04 09:57:52;;;;;;;8.75;4.90;;;;;;;;;;5036837;28;20035;-77
2022/11/04 10:00:19;;;;;;;8.80;4.57;;;;;;;;;;5055494;28;20025;-78
2022/11/04 10:03:00;;;;;;;10.02;4.85;;;;;;;;;;5037663;28;20074;-77
2022/11/04 10:05:28;;;;;;;13.52;4.70;;;;;;;;;;5056170;28;20112;-78
2022/11/04 10:08:15;;;;;;;8.30;4.70;;;;;;;;;;5055800;28;20059;-77
2022/11/04 10:10:41;;;;;;;10.10;4.97;;;;;;;;;;5055434;28;20379;-77
2022/11/04 10:13:12;;;;;;;11.70;4.72;;;;;;;;;;5055773;28;20052;-77
2022/11/04 10:15:43;;;;;;;7.03;4.10;;;;;;;;;;5056517;28;20025;-78
2022/11/04 10:18:41;;;;;;;11.43;4.78;;;;;;;;;;5056324;28;20502;-78
2022/11/04 10:21:25;;;;;;;9.35;4.82;;;;;;;;;;5056606;28;20064;-77
2022/11/04 10:24:16;;;;;;;10.32;5.38;;;;;;;;;;5054335;28;20444;-77
2022/11/04 10:26:45;;;;;;;9.50;5.30;;;;;;;;;;5056166;28;20444;-78
2022/11/04 10:29:28;;;;;;;11.07;5.75;;;;;;;;;;5056745;28;20466;-78
2022/11/04 10:31:56;;;;;;;10.77;5.95;;;;;;;;;;5039565;28;20060;-78
2022/11/04 10:34:27;;;;;;;7.55;4.93;;;;;;;;;;5056446;28;20520;-78
2022/11/04 10:36:54;;;;;;;9.30;5.50;;;;;;;;;;5056351;28;20071;-77
2022/11/04 10:39:27;;;;;;;10.05;5.07;;;;;;;;;;5054590;28;20033;-78
2022/11/04 10:41:53;;;;;;;16.17;5.27;;;;;;;;;;5054657;28;20113;-78
2022/11/04 10:44:24;;;;;;;7.60;4.75;;;;;;;;;;5057136;28;20044;-78
2022/11/04 10:47:05;;;;;;;12.02;4.82;;;;;;;;;;5057310;28;20021;-78
2022/11/04 10:49:47;;;;;;;11.88;4.60;;;;;;;;;;5057753;28;20032;-78
2022/11/04 10:52:12;;;;;;;7.57;4.07;;;;;;;;;;5057112;28;20036;-77
2022/11/04 10:54:43;;;;;;;8.02;3.80;;;;;;;;;;5038874;28;20025;-79
2022/11/04 10:57:11;;;;;;;7.80;4.40;;;;;;;;;;5052226;28;20059;-78
2022/11/04 10:59:53;;;;;;;5.70;3.80;;;;;;;;;;5054597;28;20021;-77
2022/11/04 11:02:38;;;;;;;9.32;4.43;;;;;;;;;;5055493;28;20021;-78
2022/11/04 11:05:22;;;;;;;6.28;3.70;;;;;;;;;;5054334;28;20029;-77
2022/11/04 11:07:50;;;;;;;8.45;3.50;;;;;;;;;;5053569;28;20040;-78
2022/11/04 11:10:18;;;;;;;7.05;3.63;;;;;;;;;;5053976;28;20021;-78
2022/11/04 11:12:50;;;;;;;7.35;4.03;;;;;;;;;;5054184;28;20029;-78
2022/11/04 11:15:29;;;;;;;8.38;4.13;;;;;;;;;;5056202;28;20025;-78
2022/11/04 11:18:20;;;;;;;7.60;3.92;;;;;;;;;;5056340;28;20078;-78
2022/11/04 11:21:02;;;;;;;5.97;3.50;;;;;;;;;;5057635;28;20024;-79
2022/11/04 11:23:42;;;;;;;6.55;3.60;;;;;;;;;;5037334;28;20029;-78
2022/11/04 11:26:12;;;;;;;7.93;3.90;;;;;;;;;;5038982;28;20025;-79
2022/11/04 11:28:39;;;;;;;6.88;3.80;;;;;;;;;;5057242;28;20025;-79
2022/11/04 11:31:15;;;;;;;5.55;3.40;;;;;;;;;;5057340;28;20025;-79
2022/11/04 11:33:48;;;;;;;6.18;3.72;;;;;;;;;;5057240;28;20055;-78
2022/11/04 11:36:13;;;;;;;6.13;3.50;;;;;;;;;;5055072;28;20439;-79
2022/11/04 11:38:52;;;;;;;7.83;3.57;;;;;;;;;;5055883;28;20025;-78
2022/11/04 11:41:22;;;;;;;6.13;3.60;;;;;;;;;;5038734;28;20754;-78
2022/11/04 11:43:52;;;;;;;5.30;3.65;;;;;;;;;;5057636;28;20025;-78
2022/11/04 11:46:22;;;;;;;8.15;3.53;;;;;;;;;;5057701;28;20068;-78
2022/11/04 11:48:53;;;;;;;5.80;3.53;;;;;;;;;;5055754;28;20036;-77
2022/11/04 11:51:33;;;;;;;7.95;3.38;;;;;;;;;;5052678;28;20029;-78
2022/11/04 11:54:23;;;;;;;7.63;3.45;;;;;;;;;;5057131;28;20486;-78
2022/11/04 11:56:52;;;;;;;9.32;3.55;;;;;;;;;;5056627;28;20474;-77
2022/11/04 11:59:33;;;;;;;7.90;3.65;;;;;;;;;;5056626;28;20027;-78
2022/11/04 12:02:21;;;;;;;5.80;3.38;;;;;;;;;;5056879;28;20541;-78
2022/11/04 12:04:47;;;;;;;5.63;3.20;;;;;;;;;;5056124;28;20043;-78
2022/11/04 12:07:41;;;;;;;6.10;3.55;;;;;;;;;;5055533;28;20472;-78
2022/11/04 12:10:28;;;;;;;6.75;3.28;;;;;;;;;;5056861;28;20112;-78
2022/11/04 12:13:15;;;;;;;5.13;3.35;;;;;;;;;;5057792;28;20103;-79
2022/11/04 12:16:18;;;;;;;5.45;3.35;;;;;;;;;;5060472;28;20058;-78
2022/11/04 12:19:24;;;;;;;5.25;3.08;;;;;;;;;;5060631;28;20028;-78
2022/11/04 12:22:03;;;;;;;4.65;2.97;;;;;;;;;;4979139;28;20034;-79
2022/11/04 12:24:46;;;;;;;7.20;3.40;;;;;;;;;;4979582;28;20030;-78
2022/11/04 12:27:20;;;;;;;6.05;3.67;;;;;;;;;;5034171;28;20040;-77
2022/11/04 12:29:48;;;;;;;4.88;3.15;;;;;;;;;;5060191;28;20036;-78
2022/11/04 12:32:17;;;;;;;9.60;3.13;;;;;;;;;;5058814;28;20043;-80
2022/11/04 12:35:13;;;;;;;5.60;2.85;;;;;;;;;;5043301;28;20029;-78
2022/11/04 12:37:54;;;;;;;4.03;2.40;;;;;;;;;;5042509;28;20537;-78
2022/11/04 12:40:41;;;;;;;3.97;2.63;;;;;;;;;;5058403;28;20104;-77
2022/11/04 12:43:18;;;;;;;5.03;2.53;;;;;;;;;;5055921;28;20390;-77
2022/11/04 12:46:02;;;;;;;3.42;2.47;;;;;;;;;;5058656;28;20029;-77
2022/11/04 12:48:43;;;;;;;3.95;2.80;;;;;;;;;;5038462;28;20507;-79
2022/11/04 12:51:35;;;;;;;4.82;2.95;;;;;;;;;;5057293;28;20041;-78
2022/11/04 12:54:24;;;;;;;4.30;2.38;;;;;;;;;;5038320;28;20025;-78
2022/11/04 12:57:08;;;;;;;4.72;2.33;;;;;;;;;;5056391;28;20032;-77
2022/11/04 13:00:01;;;;;;;4.35;2.88;;;;;;;;;;5056264;28;20013;-78
2022/11/04 13:02:44;;;;;;;5.22;3.10;;;;;;;;;;5056814;28;20025;-79
2022/11/04 13:05:29;;;;;;;4.22;2.70;;;;;;;;;;5058006;28;20029;-78
2022/11/04 13:08:08;;;;;;;5.25;2.65;;;;;;;;;;5058202;28;20026;-79
2022/11/04 13:11:00;;;;;;;4.13;2.65;;;;;;;;;;5056581;28;20025;-79
2022/11/04 13:13:32;;;;;;;4.30;2.67;;;;;;;;;;5059517;28;20111;-79
2022/11/04 13:16:05;;;;;;;4.63;3.30;;;;;;;;;;5059150;28;20085;-78
2022/11/04 13:18:34;;;;;;;5.07;2.88;;;;;;;;;;5057873;28;20017;-78
2022/11/04 13:21:20;;;;;;;4.57;3.22;;;;;;;;;;5057002;28;20067;-78
2022/11/04 13:24:03;;;;;;;4.22;3.05;;;;;;;;;;5057300;28;20036;-78
2022/11/04 13:26:29;;;;;;;5.75;3.03;;;;;;;;;;5055497;28;20029;-79
2022/11/04 13:29:06;;;;;;;3.90;2.38;;;;;;;;;;5056662;28;20466;-78
2022/11/04 13:31:57;;;;;;;9.07;4.00;;;;;;;;;;5056908;28;20056;-78
2022/11/04 13:34:33;;;;;;;5.88;3.22;;;;;;;;;;5056630;28;20521;-79
2022/11/04 13:37:12;;;;;;;7.32;3.63;;;;;;;;;;5057083;28;20029;-79
2022/11/04 13:39:46;;;;;;;5.82;3.72;;;;;;;;;;5056455;28;20025;-77
2022/11/04 13:42:27;;;;;;;7.22;3.80;;;;;;;;;;5057810;28;20028;-79
2022/11/04 13:44:57;;;;;;;5.70;3.95;;;;;;;;;;5039559;28;20036;-78
2022/11/04 13:47:31;;;;;;;5.93;4.07;;;;;;;;;;5057126;28;20025;-78
2022/11/04 13:49:56;;;;;;;;;;;;;;;;;;5057400;28;20105;-78
2022/11/04 13:52:32;;;;;;;6.00;4.05;;;;;;;;;;5058089;28;19932;-78
2022/11/04 13:55:04;;;;;;;7.97;4.47;;;;;;;;;;5058650;28;20029;-78
2022/11/04 13:57:46;;;;;;;6.03;3.80;;;;;;;;;;5057048;28;20021;-78
2022/11/04 14:00:11;;;;;;;6.10;3.70;;;;;;;;;;5057540;28;20079;-79
2022/11/04 14:02:42;;;;;;;8.68;4.97;;;;;;;;;;5039282;28;20032;-78
2022/11/04 14:05:22;;;;;;;7.93;4.63;;;;;;;;;;5038404;28;20090;-77
2022/11/04 14:08:00;;;;;;;7.93;4.25;;;;;;;;;;5057456;28;20470;-78
2022/11/04 14:10:57;;;;;;;5.03;3.75;;;;;;;;;;5058086;28;20079;-78
2022/11/04 14:13:25;;;;;;;6.95;4.20;;;;;;;;;;5056810;28;20039;-79
2022/11/04 14:16:16;;;;;;;7.93;3.08;;;;;;;;;;5058018;28;20026;-78
2022/11/04 14:18:47;;;;;;;9.02;3.30;;;;;;;;;;5040686;28;20055;-79
2022/11/04 14:21:17;;;;;;;9.10;3.20;;;;;;;;;;5058115;28;20029;-78
2022/11/04 14:23:50;;;;;;;8.20;3.60;;;;;;;;;;5058003;28;20112;-78
2022/11/04 14:26:18;;;;;;;8.02;3.90;;;;;;;;;;5058173;28;20021;-78
2022/11/04 14:28:58;;;;;;;6.70;3.72;;;;;;;;;;5057122;28;20078;-78
2022/11/04 14:31:35;;;;;;;7.57;4.00;;;;;;;;;;5057502;28;20025;-78
2022/11/04 14:34:02;;;;;;;9.00;3.97;;;;;;;;;;5057602;28;20058;-79
2022/11/04 14:36:33;;;;;;;7.03;4.22;;;;;;;;;;5058052;28;20033;-78
2022/11/04 14:39:18;;;;;;;6.20;4.25;;;;;;;;;;5039142;28;20028;-78
2022/11/04 14:41:59;;;;;;;20.35;4.63;;;;;;;;;;5057824;28;20500;-77
2022/11/04 14:44:43;;;;;;;9.10;4.65;;;;;;;;;;5057221;28;20029;-78
2022/11/04 14:47:24;;;;;;;8.70;4.13;;;;;;;;;;5058541;28;20393;-78
2022/11/04 14:49:58;;;;;;;9.18;4.63;;;;;;;;;;5039523;28;20025;-77
2022/11/04 14:52:28;;;;;;;12.00;4.45;;;;;;;;;;5057106;28;20074;-78
2022/11/04 14:55:09;;;;;;;6.70;4.63;;;;;;;;;;5037495;28;20028;-77
2022/11/04 14:57:43;;;;;;;15.48;4.70;;;;;;;;;;5058015;28;20094;-77
2022/11/04 15:00:28;;;;;;;9.07;5.13;;;;;;;;;;5058397;28;20027;-79
2022/11/04 15:03:08;;;;;;;10.75;5.22;;;;;;;;;;5054882;28;20029;-77
2022/11/04 15:05:36;;;;;;;7.22;4.35;;;;;;;;;;5056501;28;20021;-78
2022/11/04 15:08:27;;;;;;;8.95;5.25;;;;;;;;;;5055180;28;20053;-78
2022/11/04 15:11:11;;;;;;;8.68;4.65;;;;;;;;;;5045923;28;20048;-78
2022/11/04 15:13:46;;;;;;;10.98;5.90;;;;;;;;;;5038581;28;20029;-77
2022/11/04 15:16:21;;;;;;;10.55;6.45;;;;;;;;;;5055369;28;20074;-78
2022/11/04 15:18:47;;;;;;;13.18;6.38;;;;;;;;;;5054843;28;20044;-78
2022/11/04 15:21:13;;;;;;;9.40;5.55;;;;;;;;;;5037816;28;20021;-78
2022/11/04 15:23:47;;;;;;;9.30;6.25;;;;;;;;;;5055608;28;20108;-77